Time;durP1;ratioP1;P1;durP2;ratioP2;P2;SDS_P1;SDS_P2;PMS_P1;PMS_P2;Temp;Humidity;BMP_temperature;BMP_pressure;BME280_temperature;BME280_humidity;BME280_pressure;Samples;Min_cycle;Max_cycle;Signal;HPM_P1;HPM_P2
2022/08/23 00:00:07;;;;;;;9.90;4.13;;;27.10;80.90;;;;;;5054065;28;20036;-72
2022/08/23 00:02:32;;;;;;;9.75;4.03;;;27.00;80.60;;;;;;5055234;28;20378;-73
2022/08/23 00:04:58;;;;;;;8.98;4.03;;;27.00;80.20;;;;;;5055141;28;20025;-73
2022/08/23 00:07:24;;;;;;;9.45;3.78;;;27.00;80.10;;;;;;5055268;28;20505;-74
2022/08/23 00:09:50;;;;;;;9.98;4.03;;;27.00;80.00;;;;;;5055688;28;20029;-73
2022/08/23 00:12:20;;;;;;;8.80;4.05;;;26.90;79.70;;;;;;5055505;28;20466;-72
2022/08/23 00:14:50;;;;;;;12.45;4.22;;;26.90;79.40;;;;;;5053893;28;20094;-71
2022/08/23 00:17:16;;;;;;;14.02;3.60;;;26.80;79.30;;;;;;5054909;28;20086;-72
2022/08/23 00:19:43;;;;;;;10.55;4.25;;;26.80;79.20;;;;;;5055176;28;20025;-72
2022/08/23 00:22:09;;;;;;;8.75;3.92;;;26.80;79.30;;;;;;5055010;28;20033;-73
2022/08/23 00:24:36;;;;;;;10.38;4.35;;;26.80;79.00;;;;;;5055125;28;20024;-73
2022/08/23 00:27:03;;;;;;;9.48;4.07;;;26.80;79.10;;;;;;5055029;28;20132;-74
2022/08/23 00:29:38;;;;;;;13.80;3.95;;;26.80;78.90;;;;;;5054045;28;20049;-73
2022/08/23 00:32:06;;;;;;;9.30;3.80;;;26.80;78.60;;;;;;5056868;28;20040;-75
2022/08/23 00:34:33;;;;;;;7.07;3.60;;;26.80;78.40;;;;;;5060393;28;20036;-75
2022/08/23 00:36:59;;;;;;;8.13;4.40;;;26.80;78.60;;;;;;5055463;28;20102;-71
2022/08/23 00:39:25;;;;;;;13.00;4.50;;;26.70;79.00;;;;;;5054916;28;20021;-72
2022/08/23 00:41:55;;;;;;;9.50;4.50;;;26.60;79.70;;;;;;5054875;28;20032;-72
2022/08/23 00:50:23;;;;;;;10.70;4.53;;;26.50;80.60;;;;;;5054924;28;20048;-72
2022/08/23 00:53:04;;;;;;;9.60;4.95;;;26.40;82.30;;;;;;5054545;28;20134;-72
2022/08/23 00:55:31;;;;;;;9.73;4.97;;;26.30;82.50;;;;;;5054426;28;20032;-72
2022/08/23 00:57:57;;;;;;;10.73;4.50;;;26.30;81.40;;;;;;5054241;28;20028;-71
2022/08/23 01:00:24;;;;;;;10.50;4.70;;;26.30;81.00;;;;;;5054211;28;20071;-72
2022/08/23 01:02:51;;;;;;;9.90;4.28;;;26.30;80.30;;;;;;5054390;28;20029;-72
2022/08/23 01:05:18;;;;;;;9.93;4.32;;;26.30;80.10;;;;;;5053046;28;20552;-73
2022/08/23 01:07:48;;;;;;;11.45;4.07;;;26.30;79.80;;;;;;5054296;28;20493;-74
2022/08/23 01:10:23;;;;;;;9.13;3.85;;;26.30;79.40;;;;;;5052945;28;20025;-72
2022/08/23 01:12:58;;;;;;;8.70;3.83;;;26.30;78.80;;;;;;5054401;28;20036;-73
2022/08/23 01:15:35;;;;;;;10.05;4.00;;;26.30;78.00;;;;;;5053940;28;20159;-72
2022/08/23 01:18:05;;;;;;;7.22;3.22;;;26.30;77.50;;;;;;5054106;28;20100;-73
2022/08/23 01:20:53;;;;;;;6.90;3.30;;;26.30;76.90;;;;;;5054154;28;20032;-72
2022/08/23 01:23:42;;;;;;;5.85;3.17;;;26.30;75.80;;;;;;5054294;28;20389;-72
2022/08/23 01:26:09;;;;;;;7.32;2.92;;;26.30;75.00;;;;;;5053713;28;20056;-72
2022/08/23 01:28:36;;;;;;;9.40;3.40;;;26.30;75.50;;;;;;5053777;28;20029;-72
2022/08/23 01:31:02;;;;;;;4.90;2.75;;;26.20;74.70;;;;;;5054045;28;20025;-72
2022/08/23 01:33:28;;;;;;;6.22;2.80;;;26.20;74.50;;;;;;5054354;28;20064;-72
2022/08/23 01:35:57;;;;;;;7.43;3.30;;;26.20;73.90;;;;;;5053952;28;20045;-72
2022/08/23 01:38:24;;;;;;;7.22;2.88;;;26.30;74.30;;;;;;5054972;28;20021;-73
2022/08/23 01:40:50;;;;;;;8.52;3.15;;;26.30;74.10;;;;;;5053566;28;20024;-74
2022/08/23 01:43:18;;;;;;;5.72;3.00;;;26.20;73.80;;;;;;5053855;28;20029;-73
2022/08/23 01:45:45;;;;;;;5.00;2.80;;;26.10;74.00;;;;;;5053454;28;20021;-72
2022/08/23 01:48:12;;;;;;;8.65;3.55;;;26.10;73.90;;;;;;5053943;28;20478;-72
2022/08/23 01:50:38;;;;;;;7.40;2.72;;;26.10;73.90;;;;;;5053671;28;20021;-72
2022/08/23 01:53:04;;;;;;;7.22;3.22;;;26.00;73.90;;;;;;5053470;28;20052;-72
2022/08/23 01:55:30;;;;;;;7.25;3.28;;;26.00;74.10;;;;;;5053414;28;20036;-71
2022/08/23 01:57:59;;;;;;;6.95;3.22;;;26.00;74.00;;;;;;5053579;28;20021;-72
2022/08/23 02:00:32;;;;;;;8.18;3.15;;;26.00;74.10;;;;;;5052231;28;20148;-72
2022/08/23 02:03:00;;;;;;;6.60;2.80;;;25.90;73.80;;;;;;5053301;28;20412;-73
2022/08/23 02:05:27;;;;;;;7.07;3.00;;;25.90;73.20;;;;;;5053365;28;20482;-73
2022/08/23 02:07:53;;;;;;;7.63;3.42;;;25.90;74.20;;;;;;5053252;28;20017;-72
2022/08/23 02:10:19;;;;;;;9.80;3.50;;;25.90;74.00;;;;;;5053517;28;20025;-72
2022/08/23 02:12:45;;;;;;;8.32;3.00;;;25.90;73.60;;;;;;5053226;28;20021;-72
2022/08/23 02:15:12;;;;;;;6.90;3.00;;;25.80;73.70;;;;;;5052615;28;20463;-72
2022/08/23 02:17:38;;;;;;;7.15;2.95;;;25.80;73.80;;;;;;5053162;28;20112;-72
2022/08/23 02:20:07;;;;;;;6.70;2.90;;;25.70;73.70;;;;;;5053054;28;20025;-72
2022/08/23 02:22:33;;;;;;;5.43;2.60;;;25.70;72.70;;;;;;5053256;28;20079;-74
2022/08/23 02:24:59;;;;;;;6.75;2.42;;;25.60;73.70;;;;;;5053107;28;20494;-72
2022/08/23 02:27:25;;;;;;;10.32;3.13;;;25.60;74.10;;;;;;5052711;28;20478;-72
2022/08/23 02:29:51;;;;;;;12.55;3.05;;;25.50;73.60;;;;;;5052864;28;20032;-73
2022/08/23 02:32:18;;;;;;;6.63;2.92;;;25.50;73.70;;;;;;5052866;28;20060;-71
2022/08/23 02:34:44;;;;;;;8.05;2.88;;;25.50;73.70;;;;;;5052834;28;20052;-72
2022/08/23 02:37:12;;;;;;;5.82;2.63;;;25.60;73.70;;;;;;5052696;28;20036;-73
2022/08/23 02:39:39;;;;;;;5.28;2.80;;;25.60;73.70;;;;;;5052841;28;20017;-73
2022/08/23 02:42:06;;;;;;;6.03;2.80;;;25.60;73.60;;;;;;5052897;28;20099;-72
2022/08/23 02:44:33;;;;;;;6.22;2.80;;;25.60;73.70;;;;;;5052905;28;20021;-72
2022/08/23 02:47:00;;;;;;;6.65;2.42;;;25.50;73.50;;;;;;5052676;28;20050;-72
2022/08/23 02:49:27;;;;;;;7.13;2.65;;;25.50;73.70;;;;;;5052831;28;20033;-72
2022/08/23 02:51:53;;;;;;;8.38;2.92;;;25.50;73.60;;;;;;5052655;28;20467;-72
2022/08/23 02:54:18;;;;;;;8.32;2.97;;;25.50;73.40;;;;;;5052453;28;20040;-73
2022/08/23 02:56:44;;;;;;;6.65;2.40;;;25.50;73.30;;;;;;5052481;28;20377;-72
2022/08/23 02:59:10;;;;;;;4.88;2.50;;;25.50;73.00;;;;;;5052714;28;20079;-74
2022/08/23 03:01:37;;;;;;;7.13;2.60;;;25.50;73.10;;;;;;5052442;28;20041;-73
2022/08/23 03:04:06;;;;;;;4.50;2.47;;;25.50;73.20;;;;;;5052844;28;20025;-74
2022/08/23 03:06:33;;;;;;;6.10;2.38;;;25.50;73.00;;;;;;5052360;28;20021;-72
2022/08/23 03:08:59;;;;;;;6.35;2.30;;;25.50;72.90;;;;;;5052425;28;20029;-73
2022/08/23 03:11:25;;;;;;;8.82;2.65;;;25.50;72.70;;;;;;5052755;28;20013;-72
2022/08/23 03:13:53;;;;;;;7.03;2.33;;;25.50;72.70;;;;;;5052490;28;20087;-72
2022/08/23 03:16:19;;;;;;;5.60;2.40;;;25.50;72.70;;;;;;5052319;28;20386;-73
2022/08/23 03:18:45;;;;;;;5.50;2.75;;;25.50;72.60;;;;;;5052292;28;20029;-72
2022/08/23 03:21:12;;;;;;;7.05;2.40;;;25.50;72.20;;;;;;5052427;28;20021;-73
2022/08/23 03:23:39;;;;;;;5.47;2.40;;;25.40;72.40;;;;;;5052452;28;20079;-73
2022/08/23 03:26:06;;;;;;;5.13;2.30;;;25.40;72.00;;;;;;5052926;28;20045;-71
2022/08/23 03:28:34;;;;;;;4.20;2.10;;;25.30;72.10;;;;;;5056035;28;20040;-72
2022/08/23 03:31:00;;;;;;;6.68;2.65;;;25.30;72.10;;;;;;5056108;28;20466;-72
2022/08/23 03:33:26;;;;;;;6.88;2.80;;;25.20;72.10;;;;;;5056092;28;20104;-74
2022/08/23 03:35:51;;;;;;;5.95;2.55;;;25.20;72.30;;;;;;5056403;28;20036;-73
2022/08/23 03:38:18;;;;;;;3.85;2.25;;;25.20;72.30;;;;;;5055699;28;20025;-72
2022/08/23 03:40:44;;;;;;;5.88;2.47;;;25.20;72.60;;;;;;5056260;28;20087;-72
2022/08/23 03:43:10;;;;;;;6.95;2.63;;;25.10;72.50;;;;;;5055869;28;20100;-72
2022/08/23 03:45:36;;;;;;;5.25;2.58;;;25.10;72.80;;;;;;5056027;28;20102;-72
2022/08/23 03:48:03;;;;;;;5.57;2.70;;;25.10;72.50;;;;;;5055920;28;20401;-73
2022/08/23 03:50:29;;;;;;;5.82;2.70;;;25.00;72.50;;;;;;5056066;28;20024;-72
2022/08/23 03:52:54;;;;;;;5.85;2.65;;;25.00;72.60;;;;;;5058299;28;20037;-72
2022/08/23 03:55:20;;;;;;;7.40;2.58;;;25.00;72.90;;;;;;5064806;28;20352;-72
2022/08/23 03:57:47;;;;;;;6.03;2.75;;;25.00;72.80;;;;;;5056071;28;20025;-73
2022/08/23 04:00:14;;;;;;;7.03;2.95;;;25.10;72.90;;;;;;5055716;28;20028;-73
2022/08/23 04:02:40;;;;;;;5.18;2.35;;;25.10;72.70;;;;;;5055841;28;20024;-73
2022/08/23 04:05:09;;;;;;;5.82;2.80;;;25.10;72.70;;;;;;5055501;28;20454;-73
2022/08/23 04:07:37;;;;;;;9.05;2.58;;;25.00;72.40;;;;;;5055337;28;20056;-74
2022/08/23 04:10:03;;;;;;;6.88;3.00;;;25.00;72.90;;;;;;5055351;28;20555;-72
2022/08/23 04:12:29;;;;;;;6.80;3.15;;;25.00;72.60;;;;;;5055634;28;20036;-73
2022/08/23 04:14:55;;;;;;;5.82;3.08;;;24.90;72.60;;;;;;5055720;28;20037;-72
2022/08/23 04:17:21;;;;;;;5.60;3.20;;;24.90;72.70;;;;;;5055441;28;20466;-72
2022/08/23 04:19:47;;;;;;;7.97;3.42;;;24.90;73.00;;;;;;5055294;28;20021;-72
2022/08/23 04:22:15;;;;;;;8.43;3.40;;;24.90;72.70;;;;;;5055318;28;20021;-72
2022/08/23 04:24:42;;;;;;;7.00;3.20;;;24.90;73.40;;;;;;5055145;28;20028;-73
2022/08/23 04:27:08;;;;;;;9.30;3.70;;;24.90;72.80;;;;;;5054949;28;20114;-74
2022/08/23 04:29:34;;;;;;;7.57;3.33;;;25.00;72.60;;;;;;5055051;28;20494;-73
2022/08/23 04:32:01;;;;;;;7.40;3.25;;;25.00;72.60;;;;;;5055193;28;20056;-72
2022/08/23 04:34:27;;;;;;;9.52;3.20;;;24.90;72.70;;;;;;5055151;28;20121;-73
2022/08/23 04:36:53;;;;;;;6.80;3.38;;;24.90;72.90;;;;;;5053126;28;20541;-73
2022/08/23 04:39:19;;;;;;;7.95;2.70;;;24.90;72.80;;;;;;5054735;28;20074;-72
2022/08/23 04:44:29;;;;;;;8.75;2.70;;;24.90;71.90;;;;;;5055096;28;20047;-73
2022/08/23 04:46:54;;;;;;;5.80;2.47;;;24.90;72.70;;;;;;5054769;28;20025;-72
2022/08/23 04:49:22;;;;;;;4.93;2.80;;;24.90;72.80;;;;;;5054630;28;20071;-72
2022/08/23 04:51:48;;;;;;;7.00;2.65;;;24.90;72.50;;;;;;5054806;28;20017;-72
2022/08/23 04:54:14;;;;;;;4.93;2.60;;;24.90;72.40;;;;;;5054570;28;20033;-73
2022/08/23 04:56:40;;;;;;;4.25;2.30;;;24.80;72.30;;;;;;5054479;28;20508;-73
2022/08/23 04:59:06;;;;;;;9.60;2.30;;;24.90;72.10;;;;;;5054605;28;20040;-72
2022/08/23 05:01:33;;;;;;;5.00;2.17;;;24.90;72.10;;;;;;5054503;28;20024;-72
2022/08/23 05:04:00;;;;;;;5.28;2.45;;;24.90;72.50;;;;;;5054469;28;20064;-72
2022/08/23 05:06:26;;;;;;;5.57;2.58;;;24.90;72.10;;;;;;5054174;28;20105;-72
2022/08/23 05:08:52;;;;;;;5.53;2.70;;;24.90;72.10;;;;;;5054285;28;20110;-73
2022/08/23 05:11:19;;;;;;;5.53;2.42;;;24.90;72.00;;;;;;5054304;28;20357;-72
2022/08/23 05:13:45;;;;;;;6.53;2.65;;;24.90;71.80;;;;;;5052672;28;20029;-72
2022/08/23 05:16:12;;;;;;;7.28;2.70;;;24.80;71.80;;;;;;5054056;28;20473;-72
2022/08/23 05:18:39;;;;;;;3.80;2.05;;;24.80;71.70;;;;;;5053923;28;20410;-73
2022/08/23 05:21:05;;;;;;;6.43;2.88;;;24.80;71.80;;;;;;5054010;28;20466;-72
2022/08/23 05:23:31;;;;;;;5.40;2.22;;;24.80;71.40;;;;;;5053968;28;20094;-73
2022/08/23 05:25:57;;;;;;;8.43;2.33;;;24.80;71.50;;;;;;5053364;28;20029;-73
2022/08/23 05:28:26;;;;;;;9.48;2.53;;;24.80;71.30;;;;;;5053487;28;20048;-75
2022/08/23 05:31:05;;;;;;;6.18;2.95;;;24.80;71.30;;;;;;5052268;28;20024;-74
2022/08/23 05:33:33;;;;;;;5.38;2.30;;;24.90;70.10;;;;;;5054172;28;20458;-73
2022/08/23 05:36:00;;;;;;;5.57;2.35;;;24.90;71.10;;;;;;5053545;28;20078;-72
2022/08/23 05:38:26;;;;;;;5.20;2.10;;;24.90;70.90;;;;;;5053359;28;20029;-73
2022/08/23 05:40:56;;;;;;;6.97;2.60;;;24.90;71.20;;;;;;5053322;28;20029;-72
2022/08/23 05:43:22;;;;;;;7.55;2.40;;;24.90;71.60;;;;;;5051989;28;20071;-71
2022/08/23 05:46:01;;;;;;;8.55;2.55;;;25.00;70.80;;;;;;5053133;28;20032;-73
2022/08/23 05:48:27;;;;;;;7.80;2.25;;;25.00;70.90;;;;;;5052491;28;20040;-72
2022/08/23 05:50:53;;;;;;;7.88;2.50;;;25.10;70.70;;;;;;5053099;28;20506;-73
2022/08/23 05:53:19;;;;;;;5.03;2.45;;;25.30;70.30;;;;;;5053316;28;20021;-74
2022/08/23 05:55:45;;;;;;;5.80;2.55;;;25.50;69.70;;;;;;5052975;28;20120;-73
2022/08/23 05:58:11;;;;;;;7.18;2.20;;;25.80;69.00;;;;;;5053130;28;20021;-72
2022/08/23 06:00:36;;;;;;;5.47;2.00;;;25.90;68.50;;;;;;5052921;28;20364;-74
2022/08/23 06:03:03;;;;;;;6.95;2.30;;;26.10;68.20;;;;;;5052932;28;20086;-73
2022/08/23 06:05:28;;;;;;;4.65;2.33;;;26.20;68.00;;;;;;5052874;28;20366;-72
2022/08/23 06:07:54;;;;;;;11.00;2.42;;;26.40;67.40;;;;;;5052732;28;20035;-72
2022/08/23 06:10:20;;;;;;;6.95;2.67;;;26.60;67.20;;;;;;5051800;28;20127;-72
2022/08/23 06:12:46;;;;;;;6.35;2.45;;;26.80;66.80;;;;;;5053852;28;20096;-73
2022/08/23 06:15:13;;;;;;;8.35;2.40;;;26.90;66.30;;;;;;5053378;28;20483;-72
2022/08/23 06:17:39;;;;;;;6.70;2.35;;;27.00;65.70;;;;;;5053029;28;20051;-74
2022/08/23 06:20:06;;;;;;;8.30;2.30;;;27.10;65.70;;;;;;5052882;28;20052;-72
2022/08/23 06:22:31;;;;;;;9.45;2.83;;;27.10;65.30;;;;;;5052841;28;20024;-73
2022/08/23 06:24:59;;;;;;;8.27;2.63;;;27.10;65.20;;;;;;5052388;28;20025;-72
2022/08/23 06:27:24;;;;;;;7.10;2.42;;;27.30;65.40;;;;;;5050744;28;20041;-72
2022/08/23 06:29:50;;;;;;;7.78;2.67;;;27.30;64.70;;;;;;5052630;28;20044;-73
2022/08/23 06:32:16;;;;;;;4.25;2.35;;;27.40;64.70;;;;;;5052523;28;20584;-73
2022/08/23 06:34:41;;;;;;;8.70;2.20;;;27.60;64.50;;;;;;5052600;28;20028;-72
2022/08/23 06:37:10;;;;;;;7.53;2.35;;;27.80;64.20;;;;;;5052464;28;20374;-72
2022/08/23 06:39:37;;;;;;;5.97;2.75;;;27.80;63.90;;;;;;5053414;28;20029;-72
2022/08/23 06:42:04;;;;;;;5.35;1.95;;;27.90;63.60;;;;;;5053634;28;20017;-71
2022/08/23 06:44:31;;;;;;;5.90;2.33;;;27.90;63.40;;;;;;5053441;28;20033;-72
2022/08/23 06:46:57;;;;;;;6.38;2.70;;;28.20;63.30;;;;;;5052188;28;20092;-73
2022/08/23 06:49:24;;;;;;;6.35;2.50;;;28.40;62.70;;;;;;5052194;28;20041;-72
2022/08/23 06:51:55;;;;;;;6.90;2.97;;;28.50;62.60;;;;;;5052380;28;20029;-73
2022/08/23 06:54:26;;;;;;;12.48;3.72;;;28.50;62.30;;;;;;5052096;28;20113;-73
2022/08/23 06:56:53;;;;;;;6.40;2.58;;;28.70;61.90;;;;;;5052450;28;20100;-73
2022/08/23 06:59:19;;;;;;;8.27;3.17;;;28.80;61.90;;;;;;5052151;28;20025;-72
2022/08/23 07:01:55;;;;;;;14.57;2.70;;;28.90;61.60;;;;;;5055650;28;20033;-72
2022/08/23 07:04:32;;;;;;;9.60;2.60;;;28.90;61.50;;;;;;5056122;28;20443;-73
2022/08/23 07:07:00;;;;;;;9.88;2.92;;;28.90;61.00;;;;;;5056295;28;20044;-73
2022/08/23 07:09:27;;;;;;;5.78;2.47;;;29.00;61.30;;;;;;5056041;28;20056;-73
2022/08/23 07:11:53;;;;;;;7.35;2.58;;;29.00;61.10;;;;;;5056116;28;20025;-72
2022/08/23 07:14:20;;;;;;;7.63;2.97;;;29.10;61.10;;;;;;5055988;28;20025;-73
2022/08/23 07:16:55;;;;;;;9.85;2.55;;;29.20;61.10;;;;;;5055822;28;20114;-72
2022/08/23 07:19:26;;;;;;;6.97;2.42;;;29.30;60.60;;;;;;5055938;28;20029;-72
2022/08/23 07:21:52;;;;;;;9.77;2.58;;;29.30;61.10;;;;;;5055799;28;20029;-73
2022/08/23 07:24:19;;;;;;;9.68;2.70;;;29.40;60.70;;;;;;5055640;28;20048;-73
2022/08/23 07:26:46;;;;;;;7.15;2.83;;;29.40;60.40;;;;;;5055283;28;20045;-71
2022/08/23 07:29:13;;;;;;;9.07;2.60;;;29.50;60.60;;;;;;5055462;28;20044;-71
2022/08/23 07:31:42;;;;;;;8.23;2.95;;;29.50;60.30;;;;;;5055473;28;20021;-72
2022/08/23 07:34:09;;;;;;;12.75;2.50;;;29.50;60.40;;;;;;5054462;28;20013;-71
2022/08/23 07:36:36;;;;;;;6.28;2.67;;;29.60;60.30;;;;;;5055735;28;20102;-72
2022/08/23 07:39:04;;;;;;;8.93;2.40;;;29.70;60.10;;;;;;5055622;28;20029;-72
2022/08/23 07:41:30;;;;;;;10.32;2.83;;;29.60;60.00;;;;;;5055493;28;20029;-73
2022/08/23 07:43:58;;;;;;;9.38;2.78;;;29.60;60.10;;;;;;5055225;28;20055;-71
2022/08/23 07:46:25;;;;;;;8.75;2.83;;;29.60;60.30;;;;;;5055375;28;20370;-73
2022/08/23 07:48:51;;;;;;;5.97;2.50;;;29.60;60.10;;;;;;5055343;28;20476;-72
2022/08/23 07:51:18;;;;;;;4.78;2.40;;;29.50;60.20;;;;;;5055012;28;20382;-73
2022/08/23 07:53:47;;;;;;;6.75;2.55;;;29.70;60.00;;;;;;5055357;28;20029;-73
2022/08/23 07:56:15;;;;;;;6.30;2.63;;;29.70;59.30;;;;;;5055168;28;20036;-74
2022/08/23 07:58:41;;;;;;;18.75;4.35;;;29.80;59.80;;;;;;5055049;28;20100;-73
2022/08/23 08:01:28;;;;;;;12.20;3.47;;;29.80;59.60;;;;;;5055272;28;20162;-73
2022/08/23 08:03:56;;;;;;;15.00;3.10;;;29.80;59.50;;;;;;5053474;28;20474;-73
2022/08/23 08:06:28;;;;;;;8.15;2.60;;;29.90;59.70;;;;;;5054964;28;20025;-71
2022/08/23 08:08:54;;;;;;;8.45;2.90;;;29.90;59.60;;;;;;5054781;28;20436;-74
2022/08/23 08:11:23;;;;;;;5.03;2.20;;;29.80;59.60;;;;;;5054159;28;20371;-76
2022/08/23 08:13:50;;;;;;;4.38;2.15;;;29.70;59.70;;;;;;5054672;28;20104;-72
2022/08/23 08:16:29;;;;;;;11.88;2.60;;;29.70;59.70;;;;;;5054812;28;20041;-72
2022/08/23 08:18:58;;;;;;;10.73;2.65;;;29.70;59.80;;;;;;5054973;28;20234;-72
2022/08/23 08:21:25;;;;;;;7.22;3.22;;;29.70;59.70;;;;;;5054494;28;20393;-73
2022/08/23 08:23:52;;;;;;;4.75;2.08;;;29.70;59.40;;;;;;5054898;28;20027;-72
2022/08/23 08:26:18;;;;;;;7.10;2.25;;;29.70;59.20;;;;;;5052775;28;20470;-72
2022/08/23 08:28:44;;;;;;;5.40;2.45;;;29.50;58.70;;;;;;5053377;28;20133;-73
2022/08/23 08:31:11;;;;;;;7.43;2.40;;;29.40;58.80;;;;;;5054595;28;20144;-71
2022/08/23 08:33:37;;;;;;;6.13;2.75;;;29.40;59.00;;;;;;5054127;28;20475;-72
2022/08/23 08:36:03;;;;;;;6.78;2.50;;;29.30;59.20;;;;;;5053987;28;20025;-73
2022/08/23 08:38:29;;;;;;;7.22;2.67;;;29.20;59.50;;;;;;5054352;28;20029;-72
2022/08/23 08:41:35;;;;;;;5.45;2.30;;;29.30;59.30;;;;;;5054332;28;20100;-75
2022/08/23 08:44:09;;;;;;;7.85;2.60;;;29.30;59.50;;;;;;5054326;28;20035;-73
2022/08/23 08:46:45;;;;;;;9.75;2.65;;;29.30;59.20;;;;;;5053991;28;20029;-73
2022/08/23 08:49:31;;;;;;;6.38;2.78;;;29.30;58.00;;;;;;5054029;28;20486;-73
2022/08/23 08:52:35;;;;;;;6.05;2.42;;;29.40;57.80;;;;;;5054639;28;20454;-75
2022/08/23 08:55:19;;;;;;;8.70;2.70;;;29.30;58.50;;;;;;5053001;28;20045;-72
2022/08/23 08:57:47;;;;;;;6.30;2.60;;;29.40;57.90;;;;;;5054147;28;20020;-73
2022/08/23 09:00:18;;;;;;;6.20;2.50;;;29.50;58.50;;;;;;5054347;28;20031;-75
2022/08/23 09:02:48;;;;;;;5.53;2.40;;;29.60;57.70;;;;;;5054349;28;20013;-73
2022/08/23 09:05:19;;;;;;;8.38;2.88;;;29.60;57.20;;;;;;5054060;28;20452;-73
2022/08/23 09:07:51;;;;;;;5.57;2.50;;;29.60;57.40;;;;;;5053941;28;20028;-72
2022/08/23 09:10:27;;;;;;;7.00;2.70;;;29.70;57.30;;;;;;5052544;28;20048;-73
2022/08/23 09:12:56;;;;;;;7.65;2.83;;;29.60;57.30;;;;;;5054402;28;20021;-73
2022/08/23 09:15:32;;;;;;;7.93;2.63;;;29.70;57.30;;;;;;5054642;28;20394;-73
2022/08/23 09:18:11;;;;;;;5.25;2.72;;;29.70;56.80;;;;;;5054578;28;20548;-73
2022/08/23 09:20:38;;;;;;;5.28;2.15;;;29.60;56.70;;;;;;5054302;28;20108;-73
2022/08/23 09:23:17;;;;;;;5.50;2.10;;;29.60;56.40;;;;;;5054127;28;20382;-72
2022/08/23 09:25:52;;;;;;;8.50;2.55;;;29.60;56.20;;;;;;5054990;28;20421;-73
2022/08/23 09:28:19;;;;;;;4.93;1.98;;;29.70;55.30;;;;;;5054081;28;20490;-72
2022/08/23 09:30:46;;;;;;;3.85;2.30;;;29.70;54.70;;;;;;5054330;28;20052;-73
2022/08/23 09:33:21;;;;;;;4.82;2.40;;;29.70;54.30;;;;;;5054699;28;20035;-72
2022/08/23 09:36:11;;;;;;;7.03;2.67;;;29.80;54.20;;;;;;5053335;28;20470;-73
2022/08/23 09:38:38;;;;;;;6.18;2.22;;;29.90;52.40;;;;;;5054632;28;20470;-72
2022/08/23 09:41:19;;;;;;;7.30;2.35;;;30.00;53.30;;;;;;5052931;28;20025;-72
2022/08/23 09:43:49;;;;;;;4.60;2.30;;;30.00;53.70;;;;;;5054490;28;20021;-73
2022/08/23 09:46:25;;;;;;;4.97;1.77;;;30.10;51.60;;;;;;5054548;28;20036;-73
2022/08/23 09:48:54;;;;;;;5.20;2.15;;;30.10;51.90;;;;;;5054431;28;20037;-72
2022/08/23 09:51:28;;;;;;;5.03;1.88;;;30.20;51.30;;;;;;5053339;28;20017;-73
2022/08/23 09:54:17;;;;;;;4.93;2.08;;;30.20;49.80;;;;;;5054404;28;20025;-73
2022/08/23 09:56:56;;;;;;;4.22;2.30;;;30.30;48.60;;;;;;5054133;28;20587;-73
2022/08/23 09:59:25;;;;;;;6.22;1.83;;;30.40;48.50;;;;;;5054097;28;20483;-72
2022/08/23 10:01:57;;;;;;;3.58;1.85;;;30.50;48.30;;;;;;5054452;28;20048;-73
2022/08/23 10:04:28;;;;;;;6.45;2.22;;;30.60;46.90;;;;;;5053086;28;20507;-74
2022/08/23 10:06:55;;;;;;;5.45;1.80;;;30.60;46.80;;;;;;5053781;28;20113;-74
2022/08/23 10:09:32;;;;;;;3.80;1.80;;;30.70;47.50;;;;;;5052492;28;20033;-72
2022/08/23 10:12:00;;;;;;;3.47;2.10;;;30.70;45.40;;;;;;5053793;28;20021;-72
2022/08/23 10:14:27;;;;;;;4.97;2.28;;;30.70;45.90;;;;;;5052677;28;20021;-72
2022/08/23 10:17:16;;;;;;;5.63;2.55;;;30.80;46.10;;;;;;5052512;28;20028;-73
2022/08/23 10:20:12;;;;;;;4.68;2.10;;;30.90;45.10;;;;;;5052612;28;20029;-73
2022/08/23 10:22:47;;;;;;;5.30;2.55;;;31.00;44.20;;;;;;5052327;28;20048;-73
2022/08/23 10:25:27;;;;;;;4.65;1.77;;;31.10;45.10;;;;;;5052654;28;20049;-74
2022/08/23 10:31:14;;;;;;;3.75;1.90;;;31.10;44.10;;;;;;5052715;28;20071;-73
2022/08/23 10:33:54;;;;;;;4.25;1.65;;;31.10;43.90;;;;;;5052394;28;20117;-73
2022/08/23 10:36:54;;;;;;;4.38;1.80;;;31.20;44.50;;;;;;5050196;28;20466;-72
2022/08/23 10:39:28;;;;;;;3.03;2.03;;;31.20;43.40;;;;;;5052498;28;20056;-73
2022/08/23 10:42:10;;;;;;;8.50;1.95;;;31.30;44.70;;;;;;5034453;28;20025;-72
2022/08/23 10:44:45;;;;;;;3.53;1.83;;;31.40;43.20;;;;;;5050680;28;20070;-73
2022/08/23 10:47:36;;;;;;;5.13;2.00;;;31.50;42.30;;;;;;5052180;28;20375;-74
2022/08/23 10:50:18;;;;;;;4.68;2.08;;;31.60;42.50;;;;;;5052250;28;20117;-74
2022/08/23 10:53:11;;;;;;;5.80;2.00;;;31.80;42.60;;;;;;5050914;28;20099;-74
2022/08/23 10:56:01;;;;;;;4.20;1.92;;;31.90;42.10;;;;;;5050139;28;20037;-73
2022/08/23 10:58:33;;;;;;;7.05;1.90;;;31.90;42.30;;;;;;5052157;28;20055;-72
2022/08/23 11:01:00;;;;;;;3.17;1.73;;;32.00;42.30;;;;;;5052289;28;20056;-73
2022/08/23 11:03:40;;;;;;;6.28;2.38;;;32.00;42.30;;;;;;5052030;28;20474;-73
2022/08/23 11:06:33;;;;;;;3.95;2.03;;;32.10;42.40;;;;;;5051917;28;20104;-75
2022/08/23 11:09:19;;;;;;;2.97;1.67;;;32.20;41.30;;;;;;5051937;28;20421;-72
2022/08/23 11:12:02;;;;;;;3.05;1.85;;;32.20;39.30;;;;;;5051959;28;20025;-73
2022/08/23 11:14:30;;;;;;;3.58;1.70;;;32.40;40.50;;;;;;5051999;28;20124;-74
2022/08/23 11:17:04;;;;;;;3.95;1.95;;;32.50;39.90;;;;;;5051778;28;20021;-72
2022/08/23 11:19:52;;;;;;;3.35;1.80;;;32.50;39.80;;;;;;5052055;28;20181;-73
2022/08/23 11:22:25;;;;;;;4.15;1.90;;;32.50;40.00;;;;;;5051615;28;20174;-73
2022/08/23 11:25:04;;;;;;;8.77;2.22;;;32.60;40.30;;;;;;5051925;28;20053;-72
2022/08/23 11:27:35;;;;;;;4.00;1.75;;;32.60;40.10;;;;;;5050182;28;20052;-72
2022/08/23 11:30:31;;;;;;;5.75;2.10;;;32.70;39.50;;;;;;5051663;28;20045;-72
2022/08/23 11:33:15;;;;;;;3.55;1.75;;;32.80;39.80;;;;;;5051981;28;20025;-73
2022/08/23 11:35:44;;;;;;;4.85;1.80;;;32.90;39.60;;;;;;5051828;28;20029;-75
2022/08/23 11:38:11;;;;;;;10.63;2.60;;;33.00;38.70;;;;;;5051929;28;20442;-73
2022/08/23 11:40:41;;;;;;;6.00;1.70;;;33.10;37.60;;;;;;5051677;28;20373;-73
2022/08/23 11:43:22;;;;;;;5.20;1.70;;;33.20;37.60;;;;;;5051785;28;20033;-73
2022/08/23 11:45:48;;;;;;;5.03;1.92;;;33.20;36.60;;;;;;5051693;28;20060;-73
2022/08/23 11:48:35;;;;;;;5.25;2.00;;;33.20;37.50;;;;;;5054583;28;20111;-73
2022/08/23 11:51:26;;;;;;;2.90;1.70;;;33.30;36.90;;;;;;5055536;28;20036;-73
2022/08/23 11:54:15;;;;;;;2.38;1.50;;;33.40;35.40;;;;;;5055511;28;20024;-73
2022/08/23 11:56:59;;;;;;;3.45;1.40;;;33.40;34.70;;;;;;5055196;28;20078;-73
2022/08/23 11:59:33;;;;;;;5.07;1.58;;;33.30;33.60;;;;;;5055376;28;20112;-74
2022/08/23 12:02:37;;;;;;;2.65;1.30;;;33.30;33.30;;;;;;5055309;28;20100;-74
2022/08/23 12:05:22;;;;;;;2.72;1.52;;;33.10;32.00;;;;;;5053664;28;20033;-74
2022/08/23 12:08:03;;;;;;;4.40;1.60;;;33.00;33.10;;;;;;5055140;28;20032;-73
2022/08/23 12:10:40;;;;;;;2.97;1.48;;;33.00;33.10;;;;;;5055046;28;20078;-72
2022/08/23 12:13:18;;;;;;;2.83;1.48;;;33.10;32.90;;;;;;5055489;28;20462;-73
2022/08/23 12:16:13;;;;;;;3.67;1.60;;;33.20;32.70;;;;;;5054834;28;20116;-73
2022/08/23 12:18:56;;;;;;;4.45;1.80;;;33.40;31.30;;;;;;5054631;28;20047;-75
2022/08/23 12:21:41;;;;;;;3.38;1.83;;;33.50;32.90;;;;;;5054422;28;20056;-75
2022/08/23 12:24:21;;;;;;;5.38;1.50;;;33.60;31.80;;;;;;5055735;28;20024;-77
2022/08/23 12:26:51;;;;;;;3.72;1.63;;;33.60;31.10;;;;;;5054786;28;20045;-72
2022/08/23 12:29:35;;;;;;;3.08;1.38;;;33.60;32.00;;;;;;5054777;28;20063;-73
2022/08/23 12:32:25;;;;;;;3.55;1.50;;;33.80;30.40;;;;;;5054981;28;20029;-74
2022/08/23 12:35:09;;;;;;;2.95;1.50;;;33.80;29.70;;;;;;5053146;28;20046;-73
2022/08/23 12:38:00;;;;;;;3.15;1.60;;;33.80;30.00;;;;;;5054775;28;20071;-75
2022/08/23 12:40:35;;;;;;;10.65;1.40;;;34.00;31.00;;;;;;5054591;28;20025;-73
2022/08/23 12:43:13;;;;;;;4.50;1.50;;;34.00;30.40;;;;;;5054736;28;20508;-74
2022/08/23 12:45:47;;;;;;;2.60;1.50;;;34.00;29.90;;;;;;5053128;28;20055;-73
2022/08/23 12:48:15;;;;;;;2.65;1.42;;;34.20;30.10;;;;;;5054333;28;20042;-73
2022/08/23 12:50:44;;;;;;;4.32;1.80;;;34.20;29.80;;;;;;5053220;28;20033;-73
2022/08/23 12:53:15;;;;;;;4.28;1.67;;;34.00;30.00;;;;;;5054537;28;20021;-73
2022/08/23 12:55:46;;;;;;;2.35;1.60;;;33.90;30.50;;;;;;5054541;28;20067;-75
2022/08/23 12:58:16;;;;;;;3.17;1.75;;;33.90;30.70;;;;;;5053981;28;20013;-73
2022/08/23 13:01:05;;;;;;;4.53;1.80;;;33.90;30.50;;;;;;5054508;28;20051;-73
2022/08/23 13:03:38;;;;;;;5.15;1.50;;;33.80;31.40;;;;;;5054850;28;20028;-73
2022/08/23 13:06:15;;;;;;;3.78;1.70;;;33.70;30.20;;;;;;5055106;28;20239;-73
2022/08/23 13:09:12;;;;;;;3.17;1.50;;;33.60;31.30;;;;;;5054406;28;20047;-73
2022/08/23 13:11:39;;;;;;;5.38;1.73;;;33.50;31.70;;;;;;5053203;28;20128;-73
2022/08/23 13:14:34;;;;;;;10.07;2.78;;;33.50;34.10;;;;;;5053873;28;20033;-72
2022/08/23 13:17:14;;;;;;;8.32;2.47;;;33.50;39.10;;;;;;5053624;28;20048;-74